SVA1673 OEMA-OERK
Flight info
| Callsign | SVA1673 |
|---|---|
| Flight time | N/A |
| Altitude | 37000 |
| Route | OEMA/35 N0465F370 MEDR1K MEDRO M872 ORDEM ORDE1A OERK/15L |
| Aircraft | A333/H-SDE3GHIJ2J3J5M1RVWXY/LB2D1 |
Departure
| Time | 2026-04-30 21:47 |
|---|---|
| Airport | Prince Mohammad Bin Abdulaziz Airport (OEMA) |
Arrival
| Time | N/A |
|---|---|
| Airport | King Khalid International Airport (OERK) |
| Time | Latitude | Longitude | Altitude | Speed | Heading |
|---|---|---|---|---|---|
| 2026-04-30 21:36 | 24.55095 | 39.71370 | 2094 ft | 1 kts | 79° |
| 2026-04-30 21:37 | 24.55091 | 39.71342 | 2094 ft | 4 kts | 84° |
| 2026-04-30 21:37 | 24.55089 | 39.71312 | 2094 ft | 4 kts | 93° |
| 2026-04-30 21:37 | 24.55093 | 39.71283 | 2094 ft | 4 kts | 110° |
| 2026-04-30 21:37 | 24.55106 | 39.71261 | 2094 ft | 4 kts | 157° |
| 2026-04-30 21:38 | 24.55112 | 39.71258 | 2094 ft | 3 kts | 169° |
| 2026-04-30 21:41 | 24.55105 | 39.71260 | 2094 ft | 3 kts | 169° |
| 2026-04-30 21:41 | 24.55073 | 39.71266 | 2093 ft | 7 kts | 169° |
| 2026-04-30 21:41 | 24.55012 | 39.71279 | 2092 ft | 11 kts | 169° |
| 2026-04-30 21:41 | 24.54925 | 39.71297 | 2090 ft | 15 kts | 169° |
| 2026-04-30 21:42 | 24.54867 | 39.71289 | 2089 ft | 2 kts | 232° |
| 2026-04-30 21:42 | 24.54858 | 39.71264 | 2089 ft | 5 kts | 251° |
| 2026-04-30 21:42 | 24.54847 | 39.71214 | 2088 ft | 8 kts | 259° |
| 2026-04-30 21:42 | 24.54830 | 39.71154 | 2088 ft | 7 kts | 238° |
| 2026-04-30 21:43 | 24.54787 | 39.71135 | 2087 ft | 7 kts | 185° |
| 2026-04-30 21:43 | 24.54726 | 39.71143 | 2086 ft | 11 kts | 169° |
| 2026-04-30 21:43 | 24.54641 | 39.71162 | 2083 ft | 14 kts | 169° |
| 2026-04-30 21:43 | 24.54531 | 39.71185 | 2078 ft | 18 kts | 169° |
| 2026-04-30 21:44 | 24.54402 | 39.71212 | 2078 ft | 20 kts | 169° |
| 2026-04-30 21:44 | 24.54255 | 39.71244 | 2076 ft | 23 kts | 168° |
| 2026-04-30 21:44 | 24.54094 | 39.71279 | 2070 ft | 24 kts | 169° |
| 2026-04-30 21:44 | 24.53921 | 39.71314 | 2071 ft | 19 kts | 169° |
| 2026-04-30 21:45 | 24.53845 | 39.71304 | 2070 ft | 4 kts | 232° |
| 2026-04-30 21:45 | 24.53833 | 39.71267 | 2070 ft | 6 kts | 252° |
| 2026-04-30 21:45 | 24.53823 | 39.71213 | 2069 ft | 9 kts | 260° |
| 2026-04-30 21:45 | 24.53841 | 39.71151 | 2070 ft | 9 kts | 316° |
| 2026-04-30 21:46 | 24.53903 | 39.71128 | 2071 ft | 10 kts | 348° |
| 2026-04-30 21:46 | 24.53918 | 39.71124 | 2071 ft | 0 kts | 349° |
| 2026-04-30 21:46 | 24.53962 | 39.71115 | 2072 ft | 26 kts | 349° |
| 2026-04-30 21:46 | 24.54385 | 39.71024 | 2077 ft | 102 kts | 349° |
| 2026-04-30 21:47 | 24.55348 | 39.70820 | 2097 ft | 179 kts | 350° |
| 2026-04-30 21:47 | 24.56757 | 39.70546 | 2608 ft | 226 kts | 348° |
| 2026-04-30 21:47 | 24.58396 | 39.70208 | 3597 ft | 245 kts | 347° |
| 2026-04-30 21:47 | 24.60013 | 39.69855 | 5253 ft | 229 kts | 347° |
| 2026-04-30 21:48 | 24.61549 | 39.69519 | 6725 ft | 222 kts | 347° |
| 2026-04-30 21:48 | 24.63075 | 39.69187 | 7586 ft | 232 kts | 348° |
| 2026-04-30 21:48 | 24.64760 | 39.68823 | 7987 ft | 261 kts | 348° |
| 2026-04-30 21:48 | 24.66634 | 39.68422 | 8434 ft | 285 kts | 349° |
| 2026-04-30 21:49 | 24.68594 | 39.68004 | 9105 ft | 297 kts | 348° |
| 2026-04-30 21:49 | 24.70655 | 39.67565 | 9692 ft | 306 kts | 349° |
| 2026-04-30 21:49 | 24.72755 | 39.67118 | 9938 ft | 309 kts | 348° |
| 2026-04-30 21:49 | 24.74867 | 39.66668 | 9976 ft | 309 kts | 348° |
| 2026-04-30 21:50 | 24.76985 | 39.66217 | 9980 ft | 313 kts | 348° |
| 2026-04-30 21:50 | 24.79244 | 39.65734 | 9994 ft | 347 kts | 348° |
| 2026-04-30 21:50 | 24.81671 | 39.65326 | 9976 ft | 350 kts | 358° |
| 2026-04-30 21:50 | 24.83969 | 39.65804 | 9975 ft | 329 kts | 26° |
| 2026-04-30 21:51 | 24.85698 | 39.67287 | 9973 ft | 308 kts | 56° |
| 2026-04-30 21:51 | 24.86548 | 39.69380 | 9981 ft | 298 kts | 78° |
| 2026-04-30 21:51 | 24.86996 | 39.71710 | 9994 ft | 329 kts | 82° |
| 2026-04-30 21:51 | 24.87427 | 39.74277 | 9986 ft | 349 kts | 82° |
| 2026-04-30 21:52 | 24.87886 | 39.76903 | 9983 ft | 342 kts | 81° |
| 2026-04-30 21:52 | 24.88337 | 39.79393 | 9983 ft | 322 kts | 81° |
| 2026-04-30 21:52 | 24.88770 | 39.81742 | 9976 ft | 305 kts | 81° |
| 2026-04-30 21:52 | 24.89188 | 39.84003 | 9980 ft | 299 kts | 82° |
| 2026-04-30 21:53 | 24.89492 | 39.86256 | 9981 ft | 296 kts | 90° |
| 2026-04-30 21:53 | 24.89540 | 39.88521 | 10118 ft | 298 kts | 93° |
| 2026-04-30 21:53 | 24.89524 | 39.90858 | 10381 ft | 316 kts | 93° |
| 2026-04-30 21:53 | 24.89500 | 39.93368 | 10692 ft | 339 kts | 93° |
| 2026-04-30 21:54 | 24.89479 | 39.96034 | 11149 ft | 355 kts | 92° |
| 2026-04-30 21:54 | 24.89462 | 39.98785 | 11777 ft | 364 kts | 92° |
| 2026-04-30 21:54 | 24.89446 | 40.01608 | 12459 ft | 372 kts | 91° |
| 2026-04-30 21:54 | 24.89431 | 40.04482 | 13127 ft | 380 kts | 91° |
| 2026-04-30 21:55 | 24.89407 | 40.07419 | 13773 ft | 387 kts | 92° |
| 2026-04-30 21:55 | 24.89037 | 40.10364 | 14397 ft | 391 kts | 108° |
| 2026-04-30 21:55 | 24.87860 | 40.13050 | 15040 ft | 391 kts | 128° |
| 2026-04-30 21:55 | 24.86088 | 40.15331 | 15692 ft | 393 kts | 136° |
| 2026-04-30 21:56 | 24.84175 | 40.17503 | 16355 ft | 398 kts | 138° |
| 2026-04-30 21:56 | 24.82221 | 40.19689 | 17020 ft | 402 kts | 138° |
| 2026-04-30 21:56 | 24.80253 | 40.21902 | 17670 ft | 407 kts | 138° |
| 2026-04-30 21:56 | 24.78265 | 40.24149 | 18277 ft | 412 kts | 138° |
| 2026-04-30 21:57 | 24.76257 | 40.26426 | 18817 ft | 417 kts | 138° |
| 2026-04-30 21:57 | 24.74232 | 40.28726 | 19369 ft | 421 kts | 138° |
| 2026-04-30 21:57 | 24.72187 | 40.31053 | 19921 ft | 425 kts | 137° |
| 2026-04-30 21:57 | 24.70132 | 40.33412 | 20447 ft | 430 kts | 137° |
| 2026-04-30 21:58 | 24.68058 | 40.35803 | 20992 ft | 434 kts | 137° |
| 2026-04-30 21:58 | 24.65960 | 40.38220 | 21531 ft | 439 kts | 137° |
| 2026-04-30 21:58 | 24.63843 | 40.40659 | 22065 ft | 443 kts | 137° |
| 2026-04-30 21:58 | 24.61706 | 40.43119 | 22587 ft | 447 kts | 137° |
| 2026-04-30 21:59 | 24.59547 | 40.45601 | 23093 ft | 451 kts | 137° |
| 2026-04-30 21:59 | 24.57368 | 40.48107 | 23586 ft | 456 kts | 137° |
| 2026-04-30 21:59 | 24.55167 | 40.50637 | 23990 ft | 460 kts | 137° |
| 2026-04-30 22:00 | 24.50702 | 40.55763 | 24806 ft | 468 kts | 137° |
| 2026-04-30 22:00 | 24.46775 | 40.61569 | 25579 ft | 485 kts | 118° |
| 2026-04-30 22:00 | 24.45600 | 40.65064 | 25986 ft | 492 kts | 105° |
| 2026-04-30 22:01 | 24.44959 | 40.68764 | 26397 ft | 496 kts | 99° |
| 2026-04-30 22:01 | 24.44504 | 40.72525 | 26791 ft | 499 kts | 97° |
| 2026-04-30 22:01 | 24.44137 | 40.76328 | 27195 ft | 503 kts | 96° |
| 2026-04-30 22:01 | 24.43798 | 40.80167 | 27578 ft | 507 kts | 95° |
| 2026-04-30 22:02 | 24.43454 | 40.84029 | 27965 ft | 511 kts | 96° |
| 2026-04-30 22:02 | 24.43092 | 40.87923 | 28358 ft | 514 kts | 96° |
| 2026-04-30 22:02 | 24.42711 | 40.91837 | 28737 ft | 518 kts | 96° |
| 2026-04-30 22:02 | 24.42314 | 40.95777 | 29115 ft | 522 kts | 96° |
| 2026-04-30 22:03 | 24.41905 | 40.99742 | 29484 ft | 525 kts | 97° |
| 2026-04-30 22:03 | 24.41488 | 41.03739 | 29845 ft | 529 kts | 97° |
| 2026-04-30 22:03 | 24.41067 | 41.07758 | 30173 ft | 532 kts | 97° |
| 2026-04-30 22:03 | 24.40641 | 41.11810 | 30439 ft | 536 kts | 97° |
| 2026-04-30 22:04 | 24.40212 | 41.15890 | 30695 ft | 541 kts | 97° |
| 2026-04-30 22:04 | 24.39784 | 41.19948 | 30944 ft | 545 kts | 98° |
| 2026-04-30 22:04 | 24.38906 | 41.28262 | 31475 ft | 552 kts | 98° |
| 2026-04-30 22:05 | 24.38462 | 41.32458 | 31741 ft | 556 kts | 98° |
| 2026-04-30 22:05 | 24.38015 | 41.36671 | 32088 ft | 557 kts | 99° |
| 2026-04-30 22:05 | 24.37566 | 41.40891 | 32436 ft | 558 kts | 99° |
| 2026-04-30 22:05 | 24.37115 | 41.45124 | 32769 ft | 559 kts | 99° |
| 2026-04-30 22:06 | 24.36661 | 41.49367 | 33087 ft | 561 kts | 100° |
| 2026-04-30 22:06 | 24.35748 | 41.57873 | 33746 ft | 563 kts | 101° |
| 2026-04-30 22:06 | 24.35290 | 41.62128 | 34107 ft | 562 kts | 101° |
| 2026-04-30 22:07 | 24.34831 | 41.66380 | 34455 ft | 560 kts | 101° |
| 2026-04-30 22:07 | 24.34374 | 41.70611 | 34837 ft | 558 kts | 101° |
| 2026-04-30 22:07 | 24.33917 | 41.74828 | 35249 ft | 556 kts | 101° |
| 2026-04-30 22:07 | 24.33461 | 41.79023 | 35643 ft | 553 kts | 101° |
| 2026-04-30 22:08 | 24.33267 | 41.83236 | 36085 ft | 554 kts | 92° |
| 2026-04-30 22:08 | 24.33377 | 41.87457 | 36407 ft | 555 kts | 90° |
| 2026-04-30 22:08 | 24.33568 | 41.91680 | 36755 ft | 554 kts | 89° |
| 2026-04-30 22:08 | 24.33807 | 41.95900 | 36946 ft | 554 kts | 89° |
| 2026-04-30 22:09 | 24.34328 | 42.04308 | 36959 ft | 552 kts | 89° |
| 2026-04-30 22:09 | 24.34837 | 42.12696 | 36973 ft | 551 kts | 89° |
| 2026-04-30 22:10 | 24.35321 | 42.21075 | 36948 ft | 551 kts | 89° |
| 2026-04-30 22:10 | 24.35791 | 42.29443 | 36964 ft | 549 kts | 89° |
| 2026-04-30 22:11 | 24.36485 | 42.41969 | 36958 ft | 548 kts | 89° |
| 2026-04-30 22:12 | 24.36940 | 42.50263 | 36965 ft | 549 kts | 89° |
| 2026-04-30 22:12 | 24.37393 | 42.58624 | 36962 ft | 549 kts | 89° |
| 2026-04-30 22:13 | 24.37843 | 42.66989 | 36961 ft | 549 kts | 89° |
| 2026-04-30 22:13 | 24.38287 | 42.75335 | 36960 ft | 548 kts | 89° |
| 2026-04-30 22:14 | 24.38726 | 42.83679 | 36969 ft | 548 kts | 89° |
| 2026-04-30 22:14 | 24.39160 | 42.92024 | 36969 ft | 548 kts | 89° |
| 2026-04-30 22:15 | 24.39590 | 43.00367 | 36985 ft | 548 kts | 89° |
| 2026-04-30 22:15 | 24.40015 | 43.08722 | 36964 ft | 548 kts | 89° |
| 2026-04-30 22:16 | 24.40437 | 43.17064 | 36969 ft | 547 kts | 89° |
| 2026-04-30 22:17 | 24.41264 | 43.33727 | 36967 ft | 547 kts | 89° |
| 2026-04-30 22:17 | 24.41872 | 43.46221 | 36961 ft | 546 kts | 89° |
| 2026-04-30 22:18 | 24.42468 | 43.58681 | 36979 ft | 545 kts | 90° |
| 2026-04-30 22:19 | 24.43051 | 43.71101 | 36969 ft | 546 kts | 90° |
| 2026-04-30 22:20 | 24.43627 | 43.83572 | 36962 ft | 545 kts | 90° |
| 2026-04-30 22:20 | 24.44192 | 43.96037 | 36972 ft | 545 kts | 90° |
| 2026-04-30 22:21 | 24.44564 | 44.04345 | 36971 ft | 545 kts | 90° |
| 2026-04-30 22:21 | 24.45131 | 44.12637 | 36988 ft | 547 kts | 82° |
| 2026-04-30 22:22 | 24.46423 | 44.20881 | 36965 ft | 549 kts | 81° |
| 2026-04-30 22:22 | 24.47858 | 44.29112 | 36968 ft | 549 kts | 80° |
| 2026-04-30 22:23 | 24.49312 | 44.37340 | 36972 ft | 549 kts | 81° |
| 2026-04-30 22:23 | 24.50746 | 44.45564 | 36709 ft | 547 kts | 81° |
| 2026-04-30 22:24 | 24.51456 | 44.49666 | 35881 ft | 546 kts | 81° |
| 2026-04-30 22:24 | 24.52158 | 44.53740 | 35115 ft | 540 kts | 82° |
| 2026-04-30 22:24 | 24.52850 | 44.57770 | 34359 ft | 535 kts | 82° |
| 2026-04-30 22:24 | 24.53539 | 44.61793 | 33420 ft | 539 kts | 82° |
| 2026-04-30 22:25 | 24.54234 | 44.65868 | 32488 ft | 546 kts | 81° |
| 2026-04-30 22:25 | 24.54937 | 44.69988 | 31543 ft | 552 kts | 80° |
| 2026-04-30 22:25 | 24.55648 | 44.74157 | 30614 ft | 558 kts | 79° |
| 2026-04-30 22:25 | 24.56361 | 44.78339 | 29942 ft | 557 kts | 78° |
| 2026-04-30 22:26 | 24.57778 | 44.86658 | 28465 ft | 550 kts | 79° |
| 2026-04-30 22:26 | 24.58476 | 44.90774 | 27781 ft | 546 kts | 79° |
| 2026-04-30 22:26 | 24.59168 | 44.94859 | 27070 ft | 542 kts | 79° |
| 2026-04-30 22:27 | 24.59852 | 44.98908 | 26474 ft | 536 kts | 79° |
| 2026-04-30 22:27 | 24.60524 | 45.02900 | 25956 ft | 527 kts | 79° |
| 2026-04-30 22:27 | 24.61619 | 45.09413 | 25069 ft | 516 kts | 79° |
| 2026-04-30 22:28 | 24.62902 | 45.17063 | 24032 ft | 503 kts | 79° |
| 2026-04-30 22:28 | 24.63732 | 45.22028 | 23312 ft | 494 kts | 79° |
| 2026-04-30 22:29 | 24.65547 | 45.32921 | 21775 ft | 471 kts | 79° |
| 2026-04-30 22:29 | 24.66131 | 45.36437 | 21305 ft | 465 kts | 79° |
| 2026-04-30 22:30 | 24.68223 | 45.49070 | 19584 ft | 451 kts | 80° |
| 2026-04-30 22:31 | 24.69877 | 45.59108 | 18193 ft | 442 kts | 80° |
| 2026-04-30 22:32 | 24.71567 | 45.68972 | 16818 ft | 430 kts | 77° |
| 2026-04-30 22:32 | 24.72988 | 45.75256 | 15958 ft | 423 kts | 76° |
| 2026-04-30 22:33 | 24.75117 | 45.84581 | 15273 ft | 416 kts | 76° |
| 2026-04-30 22:33 | 24.76510 | 45.90731 | 14896 ft | 413 kts | 77° |
| 2026-04-30 22:34 | 24.78578 | 45.99884 | 14505 ft | 409 kts | 77° |
| 2026-04-30 22:35 | 24.79943 | 46.05943 | 14374 ft | 407 kts | 77° |
| 2026-04-30 22:36 | 24.82892 | 46.17955 | 14186 ft | 407 kts | 64° |
| 2026-04-30 22:36 | 24.84280 | 46.20650 | 14136 ft | 399 kts | 57° |
| 2026-04-30 22:37 | 24.89642 | 46.26304 | 13999 ft | 334 kts | 4° |
| 2026-04-30 22:37 | 24.91870 | 46.26191 | 13949 ft | 315 kts | 337° |
| 2026-04-30 22:37 | 24.95677 | 46.24032 | 13866 ft | 308 kts | 323° |
| 2026-04-30 22:38 | 24.99359 | 46.21601 | 13768 ft | 309 kts | 323° |
| 2026-04-30 22:38 | 25.03063 | 46.19201 | 13680 ft | 309 kts | 324° |
| 2026-04-30 22:39 | 25.04893 | 46.18029 | 13617 ft | 298 kts | 324° |
| 2026-04-30 22:39 | 25.10668 | 46.18596 | 13431 ft | 315 kts | 47° |
| 2026-04-30 22:40 | 25.13491 | 46.25092 | 13230 ft | 314 kts | 94° |
| 2026-04-30 22:41 | 25.09834 | 46.29988 | 12917 ft | 283 kts | 159° |
| 2026-04-30 22:41 | 25.06357 | 46.32033 | 12709 ft | 284 kts | 158° |
| 2026-04-30 22:42 | 24.99473 | 46.36319 | 12329 ft | 284 kts | 156° |
| 2026-04-30 22:43 | 24.96052 | 46.38483 | 12135 ft | 284 kts | 156° |
| 2026-04-30 22:43 | 24.92637 | 46.40651 | 11938 ft | 283 kts | 156° |
| 2026-04-30 22:44 | 24.89258 | 46.42801 | 11748 ft | 282 kts | 156° |
| 2026-04-30 22:45 | 24.86353 | 46.49994 | 11262 ft | 305 kts | 62° |
| 2026-04-30 22:45 | 24.88649 | 46.53925 | 10976 ft | 305 kts | 46° |
| 2026-04-30 22:46 | 24.92298 | 46.55445 | 10694 ft | 278 kts | 342° |
| 2026-04-30 22:47 | 24.98900 | 46.51555 | 10191 ft | 270 kts | 323° |
| 2026-04-30 22:47 | 25.02151 | 46.49466 | 10025 ft | 270 kts | 324° |
| 2026-04-30 22:48 | 25.05408 | 46.47397 | 9888 ft | 270 kts | 324° |
| 2026-04-30 22:49 | 25.10294 | 46.44299 | 9731 ft | 270 kts | 324° |
| 2026-04-30 22:49 | 25.15167 | 46.41194 | 9650 ft | 271 kts | 324° |
| 2026-04-30 22:50 | 25.21712 | 46.37019 | 9653 ft | 272 kts | 324° |
| 2026-04-30 22:51 | 25.24998 | 46.34925 | 9642 ft | 273 kts | 324° |
| 2026-04-30 22:51 | 25.28292 | 46.32824 | 9628 ft | 273 kts | 324° |
| 2026-04-30 22:52 | 25.29939 | 46.31774 | 9601 ft | 274 kts | 324° |
| 2026-04-30 22:52 | 25.33252 | 46.29660 | 9549 ft | 276 kts | 325° |
| 2026-04-30 22:53 | 25.36577 | 46.27541 | 9494 ft | 273 kts | 325° |
| 2026-04-30 22:53 | 25.39904 | 46.25979 | 9419 ft | 263 kts | 355° |
| 2026-04-30 22:53 | 25.41657 | 46.26535 | 9375 ft | 268 kts | 33° |
| 2026-04-30 22:54 | 25.43817 | 46.29855 | 9351 ft | 269 kts | 63° |
| 2026-04-30 22:55 | 25.45639 | 46.35501 | 9264 ft | 258 kts | 108° |
| 2026-04-30 22:55 | 25.43387 | 46.38187 | 9225 ft | 240 kts | 154° |
| 2026-04-30 22:56 | 25.40474 | 46.39997 | 9179 ft | 240 kts | 155° |
| 2026-04-30 22:56 | 25.36122 | 46.42730 | 8952 ft | 239 kts | 155° |
| 2026-04-30 22:57 | 25.33250 | 46.44549 | 8753 ft | 237 kts | 155° |
| 2026-04-30 22:57 | 25.30382 | 46.46367 | 8553 ft | 237 kts | 154° |
| 2026-04-30 22:58 | 25.27526 | 46.48181 | 8341 ft | 235 kts | 154° |
| 2026-04-30 22:59 | 25.23682 | 46.51583 | 7960 ft | 236 kts | 142° |
| 2026-04-30 22:59 | 25.20054 | 46.55151 | 7448 ft | 226 kts | 141° |